sensor_id;sensor_type;location;lat;lon;timestamp;P1;durP1;ratioP1;P2;durP2;ratioP2
10471;SDS011;5283;48.876;8.962;2022-09-06T00:00:40;6.30;;;4.53;;
10471;SDS011;5283;48.876;8.962;2022-09-06T00:03:08;6.63;;;4.63;;
10471;SDS011;5283;48.876;8.962;2022-09-06T00:05:36;5.57;;;4.20;;
10471;SDS011;5283;48.876;8.962;2022-09-06T00:08:03;5.10;;;4.33;;
10471;SDS011;5283;48.876;8.962;2022-09-06T00:10:31;4.83;;;4.40;;
10471;SDS011;5283;48.876;8.962;2022-09-06T00:12:59;5.93;;;5.20;;
10471;SDS011;5283;48.876;8.962;2022-09-06T00:15:30;6.60;;;4.40;;
10471;SDS011;5283;48.876;8.962;2022-09-06T00:17:58;5.40;;;4.67;;
10471;SDS011;5283;48.876;8.962;2022-09-06T00:20:25;5.33;;;4.83;;
10471;SDS011;5283;48.876;8.962;2022-09-06T00:22:55;5.83;;;4.13;;
10471;SDS011;5283;48.876;8.962;2022-09-06T00:25:23;6.13;;;4.63;;
10471;SDS011;5283;48.876;8.962;2022-09-06T00:27:54;7.03;;;4.70;;
10471;SDS011;5283;48.876;8.962;2022-09-06T00:30:22;4.60;;;4.20;;
10471;SDS011;5283;48.876;8.962;2022-09-06T00:32:50;4.97;;;4.43;;
10471;SDS011;5283;48.876;8.962;2022-09-06T00:35:17;5.37;;;4.07;;
10471;SDS011;5283;48.876;8.962;2022-09-06T00:37:44;5.27;;;4.30;;
10471;SDS011;5283;48.876;8.962;2022-09-06T00:40:12;6.93;;;4.57;;
10471;SDS011;5283;48.876;8.962;2022-09-06T00:42:39;5.93;;;4.63;;
10471;SDS011;5283;48.876;8.962;2022-09-06T00:45:06;5.37;;;4.57;;
10471;SDS011;5283;48.876;8.962;2022-09-06T00:47:35;5.37;;;4.87;;
10471;SDS011;5283;48.876;8.962;2022-09-06T00:50:05;5.27;;;4.80;;
10471;SDS011;5283;48.876;8.962;2022-09-06T00:52:34;6.60;;;4.97;;
10471;SDS011;5283;48.876;8.962;2022-09-06T00:55:02;6.53;;;4.80;;
10471;SDS011;5283;48.876;8.962;2022-09-06T00:57:30;5.17;;;4.40;;
10471;SDS011;5283;48.876;8.962;2022-09-06T00:59:57;5.27;;;4.50;;
10471;SDS011;5283;48.876;8.962;2022-09-06T01:02:25;5.10;;;4.60;;
10471;SDS011;5283;48.876;8.962;2022-09-06T01:04:52;5.30;;;4.80;;
10471;SDS011;5283;48.876;8.962;2022-09-06T01:07:26;5.73;;;4.80;;
10471;SDS011;5283;48.876;8.962;2022-09-06T01:10:18;8.17;;;5.03;;
10471;SDS011;5283;48.876;8.962;2022-09-06T01:13:18;5.77;;;4.80;;
10471;SDS011;5283;48.876;8.962;2022-09-06T01:21:28;6.63;;;4.97;;
10471;SDS011;5283;48.876;8.962;2022-09-06T01:26:40;9.17;;;5.30;;
10471;SDS011;5283;48.876;8.962;2022-09-06T01:29:32;5.37;;;4.83;;
10471;SDS011;5283;48.876;8.962;2022-09-06T01:32:12;5.20;;;4.80;;
10471;SDS011;5283;48.876;8.962;2022-09-06T01:34:56;7.80;;;4.73;;
10471;SDS011;5283;48.876;8.962;2022-09-06T01:37:36;4.83;;;4.40;;
10471;SDS011;5283;48.876;8.962;2022-09-06T01:40:03;6.83;;;4.90;;
10471;SDS011;5283;48.876;8.962;2022-09-06T01:42:30;5.77;;;4.70;;
10471;SDS011;5283;48.876;8.962;2022-09-06T01:45:00;9.23;;;4.47;;
10471;SDS011;5283;48.876;8.962;2022-09-06T01:55:50;4.67;;;4.27;;
10471;SDS011;5283;48.876;8.962;2022-09-06T02:01:24;4.30;;;3.67;;
10471;SDS011;5283;48.876;8.962;2022-09-06T02:06:46;4.13;;;3.20;;
10471;SDS011;5283;48.876;8.962;2022-09-06T02:09:21;3.40;;;2.90;;
10471;SDS011;5283;48.876;8.962;2022-09-06T02:11:54;3.70;;;2.93;;
10471;SDS011;5283;48.876;8.962;2022-09-06T02:14:26;3.17;;;2.90;;
10471;SDS011;5283;48.876;8.962;2022-09-06T02:17:04;14.10;;;3.83;;
10471;SDS011;5283;48.876;8.962;2022-09-06T02:19:36;6.73;;;3.70;;
10471;SDS011;5283;48.876;8.962;2022-09-06T02:22:09;9.53;;;3.83;;
10471;SDS011;5283;48.876;8.962;2022-09-06T02:24:37;8.30;;;4.27;;
10471;SDS011;5283;48.876;8.962;2022-09-06T02:27:09;6.03;;;4.00;;
10471;SDS011;5283;48.876;8.962;2022-09-06T02:29:36;8.43;;;3.90;;
10471;SDS011;5283;48.876;8.962;2022-09-06T02:32:09;8.23;;;4.50;;
10471;SDS011;5283;48.876;8.962;2022-09-06T02:34:37;5.03;;;4.47;;
10471;SDS011;5283;48.876;8.962;2022-09-06T02:37:06;7.47;;;3.97;;
10471;SDS011;5283;48.876;8.962;2022-09-06T02:39:33;25.40;;;6.87;;
10471;SDS011;5283;48.876;8.962;2022-09-06T02:42:00;11.07;;;6.57;;
10471;SDS011;5283;48.876;8.962;2022-09-06T02:44:27;12.43;;;7.07;;
10471;SDS011;5283;48.876;8.962;2022-09-06T02:46:54;13.13;;;8.17;;
10471;SDS011;5283;48.876;8.962;2022-09-06T02:49:22;10.80;;;8.60;;
10471;SDS011;5283;48.876;8.962;2022-09-06T02:51:49;17.10;;;9.93;;
10471;SDS011;5283;48.876;8.962;2022-09-06T02:54:16;15.30;;;10.40;;
10471;SDS011;5283;48.876;8.962;2022-09-06T02:56:42;15.83;;;10.00;;
10471;SDS011;5283;48.876;8.962;2022-09-06T02:59:10;15.00;;;10.90;;
10471;SDS011;5283;48.876;8.962;2022-09-06T03:01:37;19.03;;;12.77;;
10471;SDS011;5283;48.876;8.962;2022-09-06T03:04:04;17.43;;;12.33;;
10471;SDS011;5283;48.876;8.962;2022-09-06T03:06:31;18.63;;;13.03;;
10471;SDS011;5283;48.876;8.962;2022-09-06T03:08:58;22.47;;;13.70;;
10471;SDS011;5283;48.876;8.962;2022-09-06T03:11:25;17.93;;;13.60;;
10471;SDS011;5283;48.876;8.962;2022-09-06T03:13:52;21.47;;;14.30;;
10471;SDS011;5283;48.876;8.962;2022-09-06T03:16:19;18.90;;;14.20;;
10471;SDS011;5283;48.876;8.962;2022-09-06T03:18:47;17.63;;;14.30;;
10471;SDS011;5283;48.876;8.962;2022-09-06T03:21:14;21.67;;;15.37;;
10471;SDS011;5283;48.876;8.962;2022-09-06T03:23:40;24.13;;;15.00;;
10471;SDS011;5283;48.876;8.962;2022-09-06T03:26:07;25.87;;;16.17;;
10471;SDS011;5283;48.876;8.962;2022-09-06T03:28:34;21.10;;;16.37;;
10471;SDS011;5283;48.876;8.962;2022-09-06T03:31:01;21.60;;;16.40;;
10471;SDS011;5283;48.876;8.962;2022-09-06T03:33:27;22.73;;;17.53;;
10471;SDS011;5283;48.876;8.962;2022-09-06T03:35:55;27.70;;;17.73;;
10471;SDS011;5283;48.876;8.962;2022-09-06T03:38:24;35.37;;;18.83;;
10471;SDS011;5283;48.876;8.962;2022-09-06T03:40:51;32.73;;;19.80;;
10471;SDS011;5283;48.876;8.962;2022-09-06T03:43:18;27.93;;;18.40;;
10471;SDS011;5283;48.876;8.962;2022-09-06T03:45:47;25.37;;;18.10;;
10471;SDS011;5283;48.876;8.962;2022-09-06T03:48:16;33.47;;;18.70;;
10471;SDS011;5283;48.876;8.962;2022-09-06T03:50:48;33.30;;;19.67;;
10471;SDS011;5283;48.876;8.962;2022-09-06T03:53:16;33.80;;;19.27;;
10471;SDS011;5283;48.876;8.962;2022-09-06T03:55:44;36.80;;;21.10;;
10471;SDS011;5283;48.876;8.962;2022-09-06T03:58:12;34.37;;;19.50;;
10471;SDS011;5283;48.876;8.962;2022-09-06T04:00:40;36.23;;;19.90;;
10471;SDS011;5283;48.876;8.962;2022-09-06T04:03:07;28.57;;;18.80;;
10471;SDS011;5283;48.876;8.962;2022-09-06T04:05:34;30.43;;;18.37;;
10471;SDS011;5283;48.876;8.962;2022-09-06T04:08:01;25.03;;;18.33;;
10471;SDS011;5283;48.876;8.962;2022-09-06T04:10:28;26.13;;;18.97;;
10471;SDS011;5283;48.876;8.962;2022-09-06T04:12:54;34.27;;;20.47;;
10471;SDS011;5283;48.876;8.962;2022-09-06T04:15:21;32.67;;;20.03;;
10471;SDS011;5283;48.876;8.962;2022-09-06T04:17:48;37.50;;;20.50;;
10471;SDS011;5283;48.876;8.962;2022-09-06T04:20:15;28.93;;;19.27;;
10471;SDS011;5283;48.876;8.962;2022-09-06T04:22:42;30.43;;;19.50;;
10471;SDS011;5283;48.876;8.962;2022-09-06T04:25:09;34.37;;;20.53;;
10471;SDS011;5283;48.876;8.962;2022-09-06T04:27:36;34.23;;;21.23;;
10471;SDS011;5283;48.876;8.962;2022-09-06T04:30:02;30.83;;;19.33;;
10471;SDS011;5283;48.876;8.962;2022-09-06T04:32:29;25.63;;;18.07;;
10471;SDS011;5283;48.876;8.962;2022-09-06T04:34:57;30.77;;;18.90;;
10471;SDS011;5283;48.876;8.962;2022-09-06T04:37:24;30.00;;;20.13;;
10471;SDS011;5283;48.876;8.962;2022-09-06T04:39:51;27.67;;;18.87;;
10471;SDS011;5283;48.876;8.962;2022-09-06T04:42:17;26.63;;;18.73;;
10471;SDS011;5283;48.876;8.962;2022-09-06T04:44:44;26.73;;;19.00;;
10471;SDS011;5283;48.876;8.962;2022-09-06T04:47:12;24.77;;;19.03;;
10471;SDS011;5283;48.876;8.962;2022-09-06T04:49:40;37.03;;;20.43;;
10471;SDS011;5283;48.876;8.962;2022-09-06T04:52:08;44.23;;;23.10;;
10471;SDS011;5283;48.876;8.962;2022-09-06T04:54:35;34.10;;;20.77;;
10471;SDS011;5283;48.876;8.962;2022-09-06T04:57:02;33.87;;;20.70;;
10471;SDS011;5283;48.876;8.962;2022-09-06T04:59:29;35.03;;;21.47;;
10471;SDS011;5283;48.876;8.962;2022-09-06T05:01:55;37.47;;;21.70;;
10471;SDS011;5283;48.876;8.962;2022-09-06T05:04:22;39.60;;;21.60;;
10471;SDS011;5283;48.876;8.962;2022-09-06T05:06:58;27.67;;;20.07;;
10471;SDS011;5283;48.876;8.962;2022-09-06T05:09:33;32.33;;;20.53;;
10471;SDS011;5283;48.876;8.962;2022-09-06T05:12:00;40.63;;;22.70;;
10471;SDS011;5283;48.876;8.962;2022-09-06T05:14:27;32.30;;;21.03;;
10471;SDS011;5283;48.876;8.962;2022-09-06T05:16:54;40.73;;;22.30;;
10471;SDS011;5283;48.876;8.962;2022-09-06T05:19:21;44.43;;;24.17;;
10471;SDS011;5283;48.876;8.962;2022-09-06T05:21:49;39.43;;;22.40;;
10471;SDS011;5283;48.876;8.962;2022-09-06T05:24:16;36.33;;;22.97;;
10471;SDS011;5283;48.876;8.962;2022-09-06T05:26:43;40.13;;;23.17;;
10471;SDS011;5283;48.876;8.962;2022-09-06T05:29:10;30.97;;;23.10;;
10471;SDS011;5283;48.876;8.962;2022-09-06T05:31:37;41.70;;;24.07;;
10471;SDS011;5283;48.876;8.962;2022-09-06T05:34:04;41.07;;;24.60;;
10471;SDS011;5283;48.876;8.962;2022-09-06T05:36:31;37.53;;;23.37;;
10471;SDS011;5283;48.876;8.962;2022-09-06T05:38:58;40.77;;;23.83;;
10471;SDS011;5283;48.876;8.962;2022-09-06T05:41:25;33.97;;;23.57;;
10471;SDS011;5283;48.876;8.962;2022-09-06T05:43:52;36.97;;;23.97;;
10471;SDS011;5283;48.876;8.962;2022-09-06T05:46:19;36.87;;;24.27;;
10471;SDS011;5283;48.876;8.962;2022-09-06T05:48:53;47.23;;;27.10;;
10471;SDS011;5283;48.876;8.962;2022-09-06T05:51:20;47.43;;;27.10;;
10471;SDS011;5283;48.876;8.962;2022-09-06T05:53:47;39.40;;;26.07;;
10471;SDS011;5283;48.876;8.962;2022-09-06T05:56:14;34.00;;;24.20;;
10471;SDS011;5283;48.876;8.962;2022-09-06T05:58:42;32.17;;;22.93;;
10471;SDS011;5283;48.876;8.962;2022-09-06T06:01:25;29.80;;;22.77;;
10471;SDS011;5283;48.876;8.962;2022-09-06T06:03:59;36.73;;;22.93;;
10471;SDS011;5283;48.876;8.962;2022-09-06T06:06:31;46.63;;;25.03;;
10471;SDS011;5283;48.876;8.962;2022-09-06T06:08:59;44.30;;;25.70;;
10471;SDS011;5283;48.876;8.962;2022-09-06T06:11:26;37.97;;;23.70;;
10471;SDS011;5283;48.876;8.962;2022-09-06T06:13:53;30.57;;;22.70;;
10471;SDS011;5283;48.876;8.962;2022-09-06T06:16:20;32.20;;;21.70;;
10471;SDS011;5283;48.876;8.962;2022-09-06T06:18:48;35.73;;;22.00;;
10471;SDS011;5283;48.876;8.962;2022-09-06T06:23:49;36.33;;;21.30;;
10471;SDS011;5283;48.876;8.962;2022-09-06T06:26:17;32.07;;;19.47;;
10471;SDS011;5283;48.876;8.962;2022-09-06T06:28:44;33.40;;;20.07;;
10471;SDS011;5283;48.876;8.962;2022-09-06T06:31:12;24.93;;;18.13;;
10471;SDS011;5283;48.876;8.962;2022-09-06T06:33:39;20.30;;;16.00;;
10471;SDS011;5283;48.876;8.962;2022-09-06T06:36:17;22.60;;;15.47;;
10471;SDS011;5283;48.876;8.962;2022-09-06T06:38:47;19.10;;;13.23;;
10471;SDS011;5283;48.876;8.962;2022-09-06T06:41:15;18.77;;;13.03;;
10471;SDS011;5283;48.876;8.962;2022-09-06T06:43:43;16.03;;;12.30;;
10471;SDS011;5283;48.876;8.962;2022-09-06T06:46:15;11.63;;;10.17;;
10471;SDS011;5283;48.876;8.962;2022-09-06T06:48:43;10.33;;;8.93;;
10471;SDS011;5283;48.876;8.962;2022-09-06T06:51:12;8.57;;;6.57;;
10471;SDS011;5283;48.876;8.962;2022-09-06T06:53:40;7.07;;;5.63;;
10471;SDS011;5283;48.876;8.962;2022-09-06T06:58:46;9.27;;;5.10;;
10471;SDS011;5283;48.876;8.962;2022-09-06T07:01:14;9.27;;;5.20;;
10471;SDS011;5283;48.876;8.962;2022-09-06T07:03:41;7.37;;;5.50;;
10471;SDS011;5283;48.876;8.962;2022-09-06T07:06:08;7.47;;;5.60;;
10471;SDS011;5283;48.876;8.962;2022-09-06T07:08:40;6.20;;;5.60;;
10471;SDS011;5283;48.876;8.962;2022-09-06T07:11:08;9.20;;;5.03;;
10471;SDS011;5283;48.876;8.962;2022-09-06T07:13:36;6.07;;;5.57;;
10471;SDS011;5283;48.876;8.962;2022-09-06T07:16:22;6.43;;;5.73;;
10471;SDS011;5283;48.876;8.962;2022-09-06T07:18:50;6.33;;;5.23;;
10471;SDS011;5283;48.876;8.962;2022-09-06T07:21:18;7.80;;;5.70;;
10471;SDS011;5283;48.876;8.962;2022-09-06T07:24:07;6.40;;;4.97;;
10471;SDS011;5283;48.876;8.962;2022-09-06T07:26:34;7.07;;;4.77;;
10471;SDS011;5283;48.876;8.962;2022-09-06T07:29:02;6.23;;;4.57;;
10471;SDS011;5283;48.876;8.962;2022-09-06T07:31:30;5.63;;;5.10;;
10471;SDS011;5283;48.876;8.962;2022-09-06T07:34:17;5.67;;;4.70;;
10471;SDS011;5283;48.876;8.962;2022-09-06T07:36:44;5.17;;;4.73;;
10471;SDS011;5283;48.876;8.962;2022-09-06T07:39:11;5.70;;;5.10;;
10471;SDS011;5283;48.876;8.962;2022-09-06T07:41:37;5.33;;;4.83;;
10471;SDS011;5283;48.876;8.962;2022-09-06T07:44:04;5.00;;;4.50;;
10471;SDS011;5283;48.876;8.962;2022-09-06T07:46:31;5.73;;;4.70;;
10471;SDS011;5283;48.876;8.962;2022-09-06T07:48:57;5.50;;;4.67;;
10471;SDS011;5283;48.876;8.962;2022-09-06T07:51:24;6.27;;;4.73;;
10471;SDS011;5283;48.876;8.962;2022-09-06T07:53:52;4.97;;;4.27;;
10471;SDS011;5283;48.876;8.962;2022-09-06T07:56:27;6.77;;;4.13;;
10471;SDS011;5283;48.876;8.962;2022-09-06T07:58:55;6.20;;;4.20;;
10471;SDS011;5283;48.876;8.962;2022-09-06T08:01:30;8.60;;;4.63;;
10471;SDS011;5283;48.876;8.962;2022-09-06T08:03:58;5.57;;;4.27;;
10471;SDS011;5283;48.876;8.962;2022-09-06T08:06:26;5.27;;;4.30;;
10471;SDS011;5283;48.876;8.962;2022-09-06T08:08:56;5.80;;;4.23;;
10471;SDS011;5283;48.876;8.962;2022-09-06T08:11:25;8.03;;;4.47;;
10471;SDS011;5283;48.876;8.962;2022-09-06T08:13:54;5.13;;;4.60;;
10471;SDS011;5283;48.876;8.962;2022-09-06T08:16:22;6.13;;;4.47;;
10471;SDS011;5283;48.876;8.962;2022-09-06T08:18:51;4.63;;;4.20;;
10471;SDS011;5283;48.876;8.962;2022-09-06T08:21:20;4.83;;;4.13;;
10471;SDS011;5283;48.876;8.962;2022-09-06T08:23:51;5.10;;;4.07;;
10471;SDS011;5283;48.876;8.962;2022-09-06T08:26:22;5.13;;;3.83;;
10471;SDS011;5283;48.876;8.962;2022-09-06T08:28:57;7.07;;;3.90;;
10471;SDS011;5283;48.876;8.962;2022-09-06T08:31:28;5.87;;;4.30;;
10471;SDS011;5283;48.876;8.962;2022-09-06T08:33:56;4.10;;;3.60;;
10471;SDS011;5283;48.876;8.962;2022-09-06T08:36:24;4.67;;;3.37;;
10471;SDS011;5283;48.876;8.962;2022-09-06T08:38:57;5.47;;;3.60;;
10471;SDS011;5283;48.876;8.962;2022-09-06T08:41:26;5.57;;;3.30;;
10471;SDS011;5283;48.876;8.962;2022-09-06T08:44:02;4.60;;;3.10;;
10471;SDS011;5283;48.876;8.962;2022-09-06T08:47:01;6.80;;;3.20;;
10471;SDS011;5283;48.876;8.962;2022-09-06T08:49:32;7.17;;;3.33;;
10471;SDS011;5283;48.876;8.962;2022-09-06T08:57:03;8.63;;;3.43;;
10471;SDS011;5283;48.876;8.962;2022-09-06T08:59:40;5.93;;;3.20;;
10471;SDS011;5283;48.876;8.962;2022-09-06T09:02:16;6.53;;;3.30;;
10471;SDS011;5283;48.876;8.962;2022-09-06T09:04:50;5.77;;;3.17;;
10471;SDS011;5283;48.876;8.962;2022-09-06T09:07:25;5.27;;;3.30;;
10471;SDS011;5283;48.876;8.962;2022-09-06T09:10:03;7.07;;;3.13;;
10471;SDS011;5283;48.876;8.962;2022-09-06T09:12:36;5.33;;;3.07;;
10471;SDS011;5283;48.876;8.962;2022-09-06T09:15:09;5.30;;;3.00;;
10471;SDS011;5283;48.876;8.962;2022-09-06T09:17:39;5.53;;;3.13;;
10471;SDS011;5283;48.876;8.962;2022-09-06T09:20:06;4.80;;;3.07;;
10471;SDS011;5283;48.876;8.962;2022-09-06T09:22:34;4.80;;;3.10;;
10471;SDS011;5283;48.876;8.962;2022-09-06T09:25:02;5.93;;;3.30;;
10471;SDS011;5283;48.876;8.962;2022-09-06T09:27:30;7.00;;;3.23;;
10471;SDS011;5283;48.876;8.962;2022-09-06T09:30:00;7.47;;;3.20;;
10471;SDS011;5283;48.876;8.962;2022-09-06T09:32:48;7.70;;;3.43;;
10471;SDS011;5283;48.876;8.962;2022-09-06T09:35:24;11.37;;;3.30;;
10471;SDS011;5283;48.876;8.962;2022-09-06T09:38:06;7.73;;;3.10;;
10471;SDS011;5283;48.876;8.962;2022-09-06T09:40:37;6.10;;;3.17;;
10471;SDS011;5283;48.876;8.962;2022-09-06T09:43:08;5.07;;;3.00;;
10471;SDS011;5283;48.876;8.962;2022-09-06T09:45:38;6.57;;;3.30;;
10471;SDS011;5283;48.876;8.962;2022-09-06T09:48:19;5.53;;;3.50;;
10471;SDS011;5283;48.876;8.962;2022-09-06T09:50:52;5.00;;;3.50;;
10471;SDS011;5283;48.876;8.962;2022-09-06T09:53:21;4.80;;;3.40;;
10471;SDS011;5283;48.876;8.962;2022-09-06T09:55:53;5.50;;;3.30;;
10471;SDS011;5283;48.876;8.962;2022-09-06T09:58:28;6.50;;;3.60;;
10471;SDS011;5283;48.876;8.962;2022-09-06T10:03:59;4.93;;;3.57;;
10471;SDS011;5283;48.876;8.962;2022-09-06T10:06:51;5.53;;;3.33;;
10471;SDS011;5283;48.876;8.962;2022-09-06T10:09:34;4.73;;;3.40;;
10471;SDS011;5283;48.876;8.962;2022-09-06T10:12:03;5.50;;;3.57;;
10471;SDS011;5283;48.876;8.962;2022-09-06T10:14:32;5.93;;;3.57;;
10471;SDS011;5283;48.876;8.962;2022-09-06T10:17:06;4.20;;;3.27;;
10471;SDS011;5283;48.876;8.962;2022-09-06T10:19:37;4.20;;;3.57;;
10471;SDS011;5283;48.876;8.962;2022-09-06T10:27:18;7.20;;;3.60;;
10471;SDS011;5283;48.876;8.962;2022-09-06T10:30:00;5.03;;;3.27;;
10471;SDS011;5283;48.876;8.962;2022-09-06T10:43:44;6.83;;;3.40;;
10471;SDS011;5283;48.876;8.962;2022-09-06T10:46:33;4.13;;;3.30;;
10471;SDS011;5283;48.876;8.962;2022-09-06T10:49:01;7.03;;;3.70;;
10471;SDS011;5283;48.876;8.962;2022-09-06T10:51:39;5.47;;;3.53;;
10471;SDS011;5283;48.876;8.962;2022-09-06T10:54:18;9.67;;;4.30;;
10471;SDS011;5283;48.876;8.962;2022-09-06T10:57:01;6.47;;;3.63;;
10471;SDS011;5283;48.876;8.962;2022-09-06T10:59:57;6.77;;;3.63;;
10471;SDS011;5283;48.876;8.962;2022-09-06T11:02:39;7.80;;;3.47;;
10471;SDS011;5283;48.876;8.962;2022-09-06T11:05:53;5.37;;;3.40;;
10471;SDS011;5283;48.876;8.962;2022-09-06T11:08:42;4.90;;;3.50;;
10471;SDS011;5283;48.876;8.962;2022-09-06T11:11:29;5.23;;;3.70;;
10471;SDS011;5283;48.876;8.962;2022-09-06T11:14:35;5.43;;;3.30;;
10471;SDS011;5283;48.876;8.962;2022-09-06T11:17:05;6.43;;;3.80;;
10471;SDS011;5283;48.876;8.962;2022-09-06T11:19:44;5.90;;;3.80;;
10471;SDS011;5283;48.876;8.962;2022-09-06T11:25:40;7.57;;;3.77;;
10471;SDS011;5283;48.876;8.962;2022-09-06T11:28:42;7.77;;;4.20;;
10471;SDS011;5283;48.876;8.962;2022-09-06T11:31:30;3.63;;;3.33;;
10471;SDS011;5283;48.876;8.962;2022-09-06T11:34:19;7.00;;;3.80;;
10471;SDS011;5283;48.876;8.962;2022-09-06T11:36:59;7.60;;;4.00;;
10471;SDS011;5283;48.876;8.962;2022-09-06T11:39:34;7.30;;;3.87;;
10471;SDS011;5283;48.876;8.962;2022-09-06T11:42:37;6.53;;;3.77;;
10471;SDS011;5283;48.876;8.962;2022-09-06T11:47:39;7.23;;;3.80;;
10471;SDS011;5283;48.876;8.962;2022-09-06T11:52:57;5.13;;;3.60;;
10471;SDS011;5283;48.876;8.962;2022-09-06T11:55:36;5.63;;;3.37;;
10471;SDS011;5283;48.876;8.962;2022-09-06T12:00:46;5.13;;;3.20;;
10471;SDS011;5283;48.876;8.962;2022-09-06T12:06:31;3.50;;;2.60;;
10471;SDS011;5283;48.876;8.962;2022-09-06T12:09:30;4.83;;;3.10;;
10471;SDS011;5283;48.876;8.962;2022-09-06T12:11:59;7.20;;;3.10;;
10471;SDS011;5283;48.876;8.962;2022-09-06T12:24:55;6.80;;;3.03;;
10471;SDS011;5283;48.876;8.962;2022-09-06T12:39:02;4.63;;;2.53;;
10471;SDS011;5283;48.876;8.962;2022-09-06T12:41:39;7.80;;;2.47;;
10471;SDS011;5283;48.876;8.962;2022-09-06T12:44:10;8.87;;;3.00;;
10471;SDS011;5283;48.876;8.962;2022-09-06T12:46:43;7.20;;;2.70;;
10471;SDS011;5283;48.876;8.962;2022-09-06T12:49:16;5.43;;;2.40;;
10471;SDS011;5283;48.876;8.962;2022-09-06T12:51:46;4.93;;;2.40;;
10471;SDS011;5283;48.876;8.962;2022-09-06T12:54:20;4.13;;;2.10;;
10471;SDS011;5283;48.876;8.962;2022-09-06T12:56:50;3.53;;;2.37;;
10471;SDS011;5283;48.876;8.962;2022-09-06T12:59:19;5.87;;;2.70;;
10471;SDS011;5283;48.876;8.962;2022-09-06T13:02:01;8.03;;;2.50;;
10471;SDS011;5283;48.876;8.962;2022-09-06T13:04:38;5.03;;;2.50;;
10471;SDS011;5283;48.876;8.962;2022-09-06T13:07:08;4.20;;;2.63;;
10471;SDS011;5283;48.876;8.962;2022-09-06T13:09:40;5.97;;;2.73;;
10471;SDS011;5283;48.876;8.962;2022-09-06T13:12:43;5.37;;;2.70;;
10471;SDS011;5283;48.876;8.962;2022-09-06T13:15:10;4.97;;;2.60;;
10471;SDS011;5283;48.876;8.962;2022-09-06T13:17:47;6.23;;;3.03;;
10471;SDS011;5283;48.876;8.962;2022-09-06T13:22:49;5.90;;;3.17;;
10471;SDS011;5283;48.876;8.962;2022-09-06T13:27:48;5.27;;;2.93;;
10471;SDS011;5283;48.876;8.962;2022-09-06T13:32:57;5.40;;;2.47;;
10471;SDS011;5283;48.876;8.962;2022-09-06T13:35:26;4.73;;;2.80;;
10471;SDS011;5283;48.876;8.962;2022-09-06T13:40:44;4.47;;;2.77;;
10471;SDS011;5283;48.876;8.962;2022-09-06T13:43:38;4.93;;;2.50;;
10471;SDS011;5283;48.876;8.962;2022-09-06T13:46:10;5.07;;;2.30;;
10471;SDS011;5283;48.876;8.962;2022-09-06T13:48:36;3.50;;;2.40;;
10471;SDS011;5283;48.876;8.962;2022-09-06T13:51:07;4.97;;;2.10;;
10471;SDS011;5283;48.876;8.962;2022-09-06T13:53:35;3.90;;;2.10;;
10471;SDS011;5283;48.876;8.962;2022-09-06T13:56:01;2.97;;;2.00;;
10471;SDS011;5283;48.876;8.962;2022-09-06T13:58:29;3.27;;;2.00;;
10471;SDS011;5283;48.876;8.962;2022-09-06T14:00:55;3.30;;;1.90;;
10471;SDS011;5283;48.876;8.962;2022-09-06T14:03:24;3.87;;;2.03;;
10471;SDS011;5283;48.876;8.962;2022-09-06T14:05:54;2.87;;;1.70;;
10471;SDS011;5283;48.876;8.962;2022-09-06T14:08:21;4.00;;;2.20;;
10471;SDS011;5283;48.876;8.962;2022-09-06T14:10:49;3.30;;;1.90;;
10471;SDS011;5283;48.876;8.962;2022-09-06T14:13:16;2.87;;;1.90;;
10471;SDS011;5283;48.876;8.962;2022-09-06T14:15:47;3.90;;;1.83;;
10471;SDS011;5283;48.876;8.962;2022-09-06T14:18:15;3.50;;;2.10;;
10471;SDS011;5283;48.876;8.962;2022-09-06T14:20:47;3.53;;;2.10;;
10471;SDS011;5283;48.876;8.962;2022-09-06T14:23:21;3.30;;;2.37;;
10471;SDS011;5283;48.876;8.962;2022-09-06T14:25:48;3.93;;;2.30;;
10471;SDS011;5283;48.876;8.962;2022-09-06T14:28:20;6.33;;;2.70;;
10471;SDS011;5283;48.876;8.962;2022-09-06T14:30:46;5.63;;;2.30;;
10471;SDS011;5283;48.876;8.962;2022-09-06T14:33:13;3.07;;;1.90;;
10471;SDS011;5283;48.876;8.962;2022-09-06T14:35:40;4.97;;;2.30;;
10471;SDS011;5283;48.876;8.962;2022-09-06T14:38:06;4.13;;;2.63;;
10471;SDS011;5283;48.876;8.962;2022-09-06T14:40:34;3.03;;;2.47;;
10471;SDS011;5283;48.876;8.962;2022-09-06T14:43:02;4.93;;;2.30;;
10471;SDS011;5283;48.876;8.962;2022-09-06T14:45:29;6.20;;;2.23;;
10471;SDS011;5283;48.876;8.962;2022-09-06T14:47:59;3.13;;;2.23;;
10471;SDS011;5283;48.876;8.962;2022-09-06T14:50:26;3.63;;;2.17;;
10471;SDS011;5283;48.876;8.962;2022-09-06T14:52:53;3.33;;;2.30;;
10471;SDS011;5283;48.876;8.962;2022-09-06T14:55:19;3.43;;;1.93;;
10471;SDS011;5283;48.876;8.962;2022-09-06T14:57:46;4.07;;;2.13;;
10471;SDS011;5283;48.876;8.962;2022-09-06T15:00:13;3.40;;;1.90;;
10471;SDS011;5283;48.876;8.962;2022-09-06T15:02:40;2.77;;;1.90;;
10471;SDS011;5283;48.876;8.962;2022-09-06T15:05:06;5.07;;;2.10;;
10471;SDS011;5283;48.876;8.962;2022-09-06T15:07:34;5.13;;;2.40;;
10471;SDS011;5283;48.876;8.962;2022-09-06T15:10:00;5.33;;;2.17;;
10471;SDS011;5283;48.876;8.962;2022-09-06T15:12:28;2.17;;;1.70;;
10471;SDS011;5283;48.876;8.962;2022-09-06T15:14:55;3.33;;;1.70;;
10471;SDS011;5283;48.876;8.962;2022-09-06T15:17:21;2.60;;;1.80;;
10471;SDS011;5283;48.876;8.962;2022-09-06T15:19:48;2.50;;;1.53;;
10471;SDS011;5283;48.876;8.962;2022-09-06T15:22:15;2.70;;;1.90;;
10471;SDS011;5283;48.876;8.962;2022-09-06T15:24:42;2.70;;;1.83;;
10471;SDS011;5283;48.876;8.962;2022-09-06T15:27:08;3.03;;;1.80;;
10471;SDS011;5283;48.876;8.962;2022-09-06T15:29:35;4.00;;;2.17;;
10471;SDS011;5283;48.876;8.962;2022-09-06T15:32:02;3.83;;;1.93;;
10471;SDS011;5283;48.876;8.962;2022-09-06T15:34:29;5.33;;;2.20;;
10471;SDS011;5283;48.876;8.962;2022-09-06T15:36:55;3.77;;;1.90;;
10471;SDS011;5283;48.876;8.962;2022-09-06T15:39:22;6.30;;;2.20;;
10471;SDS011;5283;48.876;8.962;2022-09-06T15:41:49;4.07;;;2.10;;
10471;SDS011;5283;48.876;8.962;2022-09-06T15:44:17;3.47;;;1.97;;
10471;SDS011;5283;48.876;8.962;2022-09-06T15:46:49;5.03;;;1.90;;
10471;SDS011;5283;48.876;8.962;2022-09-06T15:49:24;3.30;;;2.00;;
10471;SDS011;5283;48.876;8.962;2022-09-06T15:51:57;2.77;;;1.80;;
10471;SDS011;5283;48.876;8.962;2022-09-06T15:54:26;3.77;;;1.60;;
10471;SDS011;5283;48.876;8.962;2022-09-06T15:57:13;3.30;;;1.90;;
10471;SDS011;5283;48.876;8.962;2022-09-06T15:59:41;3.70;;;1.70;;
10471;SDS011;5283;48.876;8.962;2022-09-06T16:02:08;3.27;;;1.83;;
10471;SDS011;5283;48.876;8.962;2022-09-06T16:04:35;4.80;;;2.00;;
10471;SDS011;5283;48.876;8.962;2022-09-06T16:07:02;5.20;;;2.10;;
10471;SDS011;5283;48.876;8.962;2022-09-06T16:09:29;3.20;;;1.80;;
10471;SDS011;5283;48.876;8.962;2022-09-06T16:11:56;3.07;;;2.10;;
10471;SDS011;5283;48.876;8.962;2022-09-06T16:14:23;5.30;;;1.87;;
10471;SDS011;5283;48.876;8.962;2022-09-06T16:16:50;5.77;;;2.20;;
10471;SDS011;5283;48.876;8.962;2022-09-06T16:19:19;5.13;;;2.17;;
10471;SDS011;5283;48.876;8.962;2022-09-06T16:21:46;4.00;;;2.20;;
10471;SDS011;5283;48.876;8.962;2022-09-06T16:24:13;4.77;;;2.23;;
10471;SDS011;5283;48.876;8.962;2022-09-06T16:26:41;3.13;;;1.83;;
10471;SDS011;5283;48.876;8.962;2022-09-06T16:29:09;2.77;;;1.97;;
10471;SDS011;5283;48.876;8.962;2022-09-06T16:31:37;6.87;;;2.30;;
10471;SDS011;5283;48.876;8.962;2022-09-06T16:34:05;5.03;;;2.33;;
10471;SDS011;5283;48.876;8.962;2022-09-06T16:36:33;4.97;;;2.63;;
10471;SDS011;5283;48.876;8.962;2022-09-06T16:39:00;7.53;;;2.70;;
10471;SDS011;5283;48.876;8.962;2022-09-06T16:41:35;5.80;;;2.70;;
10471;SDS011;5283;48.876;8.962;2022-09-06T16:44:10;4.30;;;2.23;;
10471;SDS011;5283;48.876;8.962;2022-09-06T16:46:41;4.07;;;2.30;;
10471;SDS011;5283;48.876;8.962;2022-09-06T16:49:12;6.17;;;2.23;;
10471;SDS011;5283;48.876;8.962;2022-09-06T16:51:41;4.83;;;2.40;;
10471;SDS011;5283;48.876;8.962;2022-09-06T16:54:09;3.93;;;2.33;;